createdAt,value
2022-11-16T00:00:30.755Z,74.43
2022-11-16T00:03:33.340Z,74.38
2022-11-16T00:06:34.730Z,74.26
2022-11-16T00:09:36.175Z,74.68
2022-11-16T00:12:38.725Z,74.34
2022-11-16T00:15:40.152Z,74.67
2022-11-16T00:18:42.217Z,74.72
2022-11-16T00:21:43.758Z,74.58
2022-11-16T00:24:45.126Z,74.42
2022-11-16T00:27:46.601Z,74.60
2022-11-16T00:30:48.062Z,74.69
2022-11-16T00:33:50.619Z,74.43
2022-11-16T00:36:52.325Z,74.13
2022-11-16T00:39:53.964Z,74.87
2022-11-16T00:42:55.364Z,74.39
2022-11-16T00:45:56.758Z,74.94
2022-11-16T00:48:58.182Z,74.92
2022-11-16T00:51:59.676Z,74.46
2022-11-16T00:55:01.606Z,74.39
2022-11-16T00:58:03.304Z,74.37
2022-11-16T01:01:09.592Z,74.65
2022-11-16T01:04:11.127Z,74.48
2022-11-16T01:07:12.570Z,74.54
2022-11-16T01:10:19.890Z,74.41
2022-11-16T01:13:21.270Z,74.34
2022-11-16T01:16:23.812Z,74.28
2022-11-16T01:19:25.248Z,74.59
2022-11-16T01:22:26.684Z,74.47
2022-11-16T01:25:28.105Z,74.34
2022-11-16T01:28:31.166Z,74.13
2022-11-16T01:31:33.108Z,74.39
2022-11-16T01:34:37.259Z,74.46
2022-11-16T01:37:46.489Z,74.48
2022-11-16T01:40:47.987Z,74.82
2022-11-16T01:43:54.607Z,75.13
2022-11-16T01:46:59.575Z,74.83
2022-11-16T01:50:10.184Z,75.21
2022-11-16T01:53:13.490Z,75.43
2022-11-16T01:56:31.479Z,74.96
2022-11-16T01:59:48.286Z,74.90
2022-11-16T02:02:54.501Z,75.36
2022-11-16T02:06:35.439Z,75.45
2022-11-16T02:10:05.650Z,75.71
2022-11-16T02:13:39.643Z,75.76
2022-11-16T02:17:07.321Z,76.92
2022-11-16T02:20:32.410Z,77.40
2022-11-16T02:24:05.075Z,75.66
2022-11-16T02:27:12.520Z,75.49
2022-11-16T02:30:14.841Z,75.65
2022-11-16T02:33:22.568Z,75.71
2022-11-16T02:36:25.596Z,75.29
2022-11-16T02:39:31.714Z,75.23
2022-11-16T02:42:38.866Z,74.86
2022-11-16T02:45:44.352Z,75.51
2022-11-16T02:48:50.706Z,74.97
2022-11-16T02:51:53.869Z,75.04
2022-11-16T02:54:55.352Z,74.79
2022-11-16T02:58:00.631Z,74.47
2022-11-16T03:01:08.883Z,74.83
2022-11-16T03:04:19.935Z,74.83
2022-11-16T03:07:29.153Z,74.94
2022-11-16T03:10:50.597Z,74.89
2022-11-16T03:14:01.493Z,74.80
2022-11-16T03:17:08.075Z,74.98
2022-11-16T03:20:27.387Z,75.05
2022-11-16T03:23:29.329Z,75.12
2022-11-16T03:26:38.166Z,74.89
2022-11-16T03:29:55.384Z,75.42
2022-11-16T03:33:16.873Z,75.08
2022-11-16T03:36:29.485Z,74.88
2022-11-16T03:39:36.859Z,74.66
2022-11-16T03:42:41.516Z,75.70
2022-11-16T03:45:45.483Z,75.23
2022-11-16T03:48:46.994Z,75.18
2022-11-16T03:51:58.712Z,74.89
2022-11-16T03:55:00.232Z,74.94
2022-11-16T03:58:01.898Z,74.99
2022-11-16T04:01:03.633Z,75.11
2022-11-16T04:04:05.659Z,74.97
2022-11-16T04:07:26.825Z,75.17
2022-11-16T04:10:47.035Z,75.13
2022-11-16T04:14:09.396Z,75.12
2022-11-16T04:17:34.442Z,75.27
2022-11-16T04:20:54.491Z,75.24
2022-11-16T04:24:14.286Z,74.98
2022-11-16T04:27:36.319Z,75.07
2022-11-16T04:30:56.461Z,74.66
2022-11-16T04:34:16.659Z,74.97
2022-11-16T04:37:41.988Z,75.08
2022-11-16T04:40:43.595Z,74.99
2022-11-16T04:43:47.306Z,74.82
2022-11-16T04:47:06.906Z,74.64
2022-11-16T04:50:10.188Z,74.87
2022-11-16T04:53:14.077Z,74.82
2022-11-16T04:56:22.496Z,74.85
2022-11-16T04:59:24.432Z,75.04
2022-11-16T05:02:27.474Z,75.04
2022-11-16T05:05:32.246Z,74.87
2022-11-16T05:08:35.256Z,75.45
2022-11-16T05:11:38.723Z,74.81
2022-11-16T05:14:41.194Z,74.66
2022-11-16T05:17:43.032Z,74.86
2022-11-16T05:21:02.930Z,75.28
2022-11-16T05:24:29.057Z,75.66
2022-11-16T05:27:31.488Z,75.71
2022-11-16T05:30:33.006Z,75.37
2022-11-16T05:33:36.292Z,75.54
2022-11-16T05:36:38.134Z,75.55
2022-11-16T05:39:39.691Z,75.82
2022-11-16T05:42:41.450Z,75.73
2022-11-16T05:45:43.536Z,75.93
2022-11-16T05:48:46.087Z,75.89
2022-11-16T05:51:48.645Z,76.16
2022-11-16T05:55:05.172Z,75.87
2022-11-16T05:58:10.760Z,75.92
2022-11-16T06:01:12.771Z,75.69
2022-11-16T06:04:14.828Z,75.29
2022-11-16T06:07:17.296Z,75.42
2022-11-16T06:10:18.933Z,75.27
2022-11-16T06:13:23.803Z,75.05
2022-11-16T06:16:30.282Z,75.15
2022-11-16T06:19:32.837Z,75.14
2022-11-16T06:22:34.502Z,75.32
2022-11-16T06:25:38.384Z,75.14
2022-11-16T06:28:39.965Z,74.65
2022-11-16T06:31:41.398Z,75.03
2022-11-16T06:34:43.128Z,74.85
2022-11-16T06:37:46.705Z,74.39
2022-11-16T06:40:53.247Z,74.72
2022-11-16T06:43:56.295Z,75.00
2022-11-16T06:47:04.436Z,74.53
2022-11-16T06:50:07.942Z,74.64
2022-11-16T06:53:09.507Z,74.45
2022-11-16T06:56:14.097Z,74.48
2022-11-16T06:59:20.836Z,74.56
2022-11-16T07:02:23.140Z,74.63
2022-11-16T07:05:25.568Z,74.79
2022-11-16T07:08:28.642Z,75.12
2022-11-16T07:11:30.170Z,75.03
2022-11-16T07:14:33.008Z,74.72
2022-11-16T07:17:34.453Z,75.30
2022-11-16T07:20:38.864Z,74.76
2022-11-16T07:23:40.930Z,74.36
2022-11-16T07:26:45.148Z,74.16
2022-11-16T07:29:51.436Z,74.75
2022-11-16T07:33:03.860Z,74.74
2022-11-16T07:36:28.265Z,75.18
2022-11-16T07:39:29.975Z,75.85
2022-11-16T07:42:32.273Z,75.31
2022-11-16T07:45:55.706Z,74.93
2022-11-16T07:48:59.274Z,74.66
2022-11-16T07:52:17.351Z,74.67
2022-11-16T07:55:32.207Z,74.79
2022-11-16T07:58:36.681Z,75.15
2022-11-16T08:01:39.173Z,74.67
2022-11-16T08:04:41.148Z,74.79
2022-11-16T08:07:43.669Z,74.48
2022-11-16T08:10:45.078Z,74.75
2022-11-16T08:13:46.826Z,74.14
2022-11-16T08:16:48.674Z,74.17
2022-11-16T08:19:53.258Z,73.75
2022-11-16T08:23:00.319Z,73.97
2022-11-16T08:26:14.192Z,73.72
2022-11-16T08:29:16.226Z,73.83
2022-11-16T08:32:23.065Z,72.59
2022-11-16T08:35:24.869Z,73.10
2022-11-16T08:38:27.579Z,73.24
2022-11-16T08:41:29.297Z,71.89
2022-11-16T08:44:30.877Z,71.96
2022-11-16T08:47:35.940Z,71.77
2022-11-16T08:51:02.360Z,71.37
2022-11-16T08:54:00.362Z,71.36
2022-11-16T08:57:03.256Z,71.85
2022-11-16T09:00:08.095Z,72.05
2022-11-16T09:03:09.471Z,71.60
2022-11-16T09:06:11.562Z,70.73
2022-11-16T09:09:13.075Z,71.78
2022-11-16T09:12:14.536Z,71.64
2022-11-16T09:15:16.434Z,71.37
2022-11-16T09:18:17.847Z,72.38
2022-11-16T09:21:25.363Z,71.86
2022-11-16T09:24:26.988Z,71.47
2022-11-16T09:27:28.550Z,70.17
2022-11-16T09:30:29.942Z,69.77
2022-11-16T09:33:33.249Z,68.70
2022-11-16T09:36:35.010Z,66.74
2022-11-16T09:39:36.457Z,65.75
2022-11-16T09:42:51.339Z,65.50
2022-11-16T09:46:01.822Z,63.20
2022-11-16T09:49:17.273Z,63.61
2022-11-16T09:52:34.323Z,63.81
2022-11-16T09:55:47.539Z,62.00
2022-11-16T09:58:55.421Z,65.40
2022-11-16T10:02:04.519Z,63.56
2022-11-16T10:05:24.134Z,61.44
2022-11-16T10:08:43.077Z,60.61
2022-11-16T10:11:54.732Z,60.79
2022-11-16T10:15:28.214Z,61.19
2022-11-16T10:18:53.904Z,61.41
2022-11-16T10:22:04.393Z,61.08
2022-11-16T10:25:20.597Z,59.75
2022-11-16T10:28:43.494Z,58.92
2022-11-16T10:32:02.993Z,58.23
2022-11-16T10:35:12.491Z,58.62
2022-11-16T10:38:17.114Z,59.36
2022-11-16T10:41:33.244Z,59.20
2022-11-16T10:44:45.334Z,59.82
2022-11-16T10:47:56.688Z,59.86
2022-11-16T10:50:58.192Z,59.67
2022-11-16T10:53:59.694Z,59.62
2022-11-16T10:57:13.730Z,58.69
2022-11-16T11:00:52.384Z,59.50
2022-11-16T11:03:53.844Z,58.43
2022-11-16T11:07:00.274Z,57.37
2022-11-16T11:10:01.798Z,58.80
2022-11-16T11:13:12.566Z,55.74
2022-11-16T11:16:17.433Z,56.28
2022-11-16T11:19:28.813Z,55.52
2022-11-16T11:22:32.092Z,55.01
2022-11-16T11:25:36.604Z,53.52
2022-11-16T11:28:38.640Z,53.78
2022-11-16T11:31:44.997Z,53.74
2022-11-16T11:34:50.331Z,53.97
2022-11-16T11:37:54.879Z,53.15
2022-11-16T11:40:59.130Z,54.26
2022-11-16T11:44:18.384Z,54.59
2022-11-16T11:48:02.959Z,54.32
2022-11-16T11:51:17.084Z,52.14
2022-11-16T11:54:45.839Z,52.74
2022-11-16T11:57:50.698Z,52.40
2022-11-16T12:01:19.549Z,52.15
2022-11-16T12:05:01.320Z,52.37
2022-11-16T12:08:31.057Z,52.80
2022-11-16T12:12:04.305Z,51.73
2022-11-16T12:15:48.900Z,52.56
2022-11-16T12:19:16.642Z,52.08
2022-11-16T12:22:43.208Z,52.48
2022-11-16T12:26:09.341Z,53.00
2022-11-16T12:29:24.648Z,52.65
2022-11-16T12:32:52.281Z,54.06
2022-11-16T12:36:29.094Z,54.44
2022-11-16T12:40:18.575Z,53.96
2022-11-16T12:43:38.455Z,54.20
2022-11-16T12:46:54.085Z,54.59
2022-11-16T12:50:22.747Z,52.49
2022-11-16T12:54:07.307Z,52.63
2022-11-16T12:57:33.836Z,51.92
2022-11-16T13:00:51.591Z,51.69
2022-11-16T13:03:58.696Z,51.75
2022-11-16T13:07:25.025Z,51.07
2022-11-16T13:10:31.534Z,50.68
2022-11-16T13:13:36.944Z,51.16
2022-11-16T13:16:38.798Z,51.49
2022-11-16T13:19:45.728Z,52.53
2022-11-16T13:22:58.357Z,51.80
2022-11-16T13:26:16.012Z,53.68
2022-11-16T13:29:22.260Z,51.42
2022-11-16T13:32:51.921Z,53.74
2022-11-16T13:35:53.359Z,52.97
2022-11-16T13:38:54.765Z,54.08
2022-11-16T13:42:11.634Z,53.90
2022-11-16T13:45:19.637Z,54.58
2022-11-16T13:48:38.405Z,53.52
2022-11-16T13:51:49.724Z,54.24
2022-11-16T13:54:53.690Z,54.82
2022-11-16T13:57:57.858Z,53.63
2022-11-16T14:01:04.281Z,53.75
2022-11-16T14:04:35.536Z,54.35
2022-11-16T14:07:47.046Z,54.02
2022-11-16T14:10:51.411Z,53.42
2022-11-16T14:13:53.022Z,54.25
2022-11-16T14:16:54.601Z,54.14
2022-11-16T14:19:56.228Z,54.48
2022-11-16T14:23:11.401Z,54.11
2022-11-16T14:26:32.578Z,54.83
2022-11-16T14:29:51.506Z,54.57
2022-11-16T14:32:56.166Z,54.99
2022-11-16T14:35:58.354Z,54.18
2022-11-16T14:39:13.778Z,54.65
2022-11-16T14:42:42.997Z,54.10
2022-11-16T14:45:59.218Z,55.44
2022-11-16T14:49:02.320Z,55.01
2022-11-16T14:52:06.800Z,54.78
2022-11-16T14:55:16.806Z,54.68
2022-11-16T14:58:23.192Z,54.58
2022-11-16T15:01:28.688Z,54.63
2022-11-16T15:04:30.765Z,55.45
2022-11-16T15:07:32.497Z,56.04
2022-11-16T15:10:34.001Z,55.95
2022-11-16T15:13:36.219Z,56.31
2022-11-16T15:16:49.132Z,57.07
2022-11-16T15:19:59.194Z,57.51
2022-11-16T15:23:02.170Z,57.14
2022-11-16T15:26:05.527Z,57.44
2022-11-16T15:29:15.248Z,57.29
2022-11-16T15:32:17.549Z,58.35
2022-11-16T15:35:24.754Z,57.66
2022-11-16T15:38:31.173Z,57.62
2022-11-16T15:41:33.644Z,58.32
2022-11-16T15:44:35.370Z,57.63
2022-11-16T15:47:37.388Z,57.42
2022-11-16T15:50:39.018Z,57.76
2022-11-16T15:53:42.729Z,57.77
2022-11-16T15:56:44.236Z,57.81
2022-11-16T15:59:52.024Z,58.50
2022-11-16T16:03:02.164Z,59.40
2022-11-16T16:06:05.022Z,60.58
2022-11-16T16:09:06.709Z,59.91
2022-11-16T16:12:23.165Z,59.77
2022-11-16T16:15:40.179Z,59.09
2022-11-16T16:18:43.978Z,58.47
2022-11-16T16:21:46.817Z,58.82
2022-11-16T16:24:48.262Z,59.08
2022-11-16T16:27:49.688Z,58.54
2022-11-16T16:30:52.212Z,58.88
2022-11-16T16:33:55.521Z,58.52
2022-11-16T16:36:57.197Z,59.10
2022-11-16T16:39:59.991Z,58.62
2022-11-16T16:43:01.415Z,58.41
2022-11-16T16:46:03.879Z,58.38
2022-11-16T16:49:05.315Z,58.16
2022-11-16T16:52:07.710Z,57.99
2022-11-16T16:55:09.176Z,58.25
2022-11-16T16:58:12.330Z,58.35
2022-11-16T17:01:14.170Z,58.23
2022-11-16T17:04:15.674Z,57.73
2022-11-16T17:07:17.398Z,57.65
2022-11-16T17:10:19.204Z,58.08
2022-11-16T17:13:20.727Z,58.23
2022-11-16T17:16:22.613Z,58.34
2022-11-16T17:19:24.446Z,59.02
2022-11-16T17:22:26.118Z,59.71
2022-11-16T17:25:27.726Z,58.55
2022-11-16T17:28:29.433Z,58.44
2022-11-16T17:31:31.039Z,57.73
2022-11-16T17:34:32.525Z,58.29
2022-11-16T17:37:34.048Z,57.59
2022-11-16T17:40:35.482Z,57.83
2022-11-16T17:43:37.121Z,58.67
2022-11-16T17:46:38.862Z,58.12
2022-11-16T17:49:40.470Z,58.33
2022-11-16T17:52:41.944Z,57.84
2022-11-16T17:55:43.521Z,58.23
2022-11-16T17:58:45.297Z,58.06
2022-11-16T18:01:46.752Z,58.69
2022-11-16T18:04:51.215Z,59.38
2022-11-16T18:07:53.187Z,59.55
2022-11-16T18:10:54.699Z,59.28
2022-11-16T18:14:00.543Z,59.05
2022-11-16T18:17:02.262Z,59.22
2022-11-16T18:20:04.792Z,59.23
2022-11-16T18:23:06.278Z,60.02
2022-11-16T18:26:14.363Z,60.86
2022-11-16T18:29:18.562Z,60.80
2022-11-16T18:32:20.062Z,61.24
2022-11-16T18:35:21.779Z,61.78
2022-11-16T18:38:23.445Z,61.09
2022-11-16T18:41:27.513Z,60.91
2022-11-16T18:44:28.995Z,60.54
2022-11-16T18:47:30.804Z,61.37
2022-11-16T18:50:32.282Z,60.98
2022-11-16T18:53:34.394Z,60.85
2022-11-16T18:56:36.342Z,60.92
2022-11-16T18:59:38.095Z,61.21
2022-11-16T19:02:41.806Z,61.02
2022-11-16T19:05:43.423Z,60.52
2022-11-16T19:08:50.445Z,60.67
2022-11-16T19:11:55.381Z,61.12
2022-11-16T19:14:56.869Z,60.56
2022-11-16T19:18:20.241Z,60.39
2022-11-16T19:21:20.239Z,60.15
2022-11-16T19:24:21.954Z,62.43
2022-11-16T19:27:23.570Z,61.44
2022-11-16T19:30:25.148Z,61.09
2022-11-16T19:33:26.661Z,61.42
2022-11-16T19:36:30.274Z,60.92
2022-11-16T19:39:32.160Z,58.69
2022-11-16T19:42:33.974Z,60.75
2022-11-16T19:45:35.629Z,60.20
2022-11-16T19:48:37.886Z,59.25
2022-11-16T19:51:39.494Z,60.19
2022-11-16T19:54:41.013Z,61.51
2022-11-16T19:57:42.728Z,60.66
2022-11-16T20:00:44.466Z,60.88
2022-11-16T20:03:47.441Z,60.80
2022-11-16T20:06:48.955Z,60.81
2022-11-16T20:09:53.322Z,60.48
2022-11-16T20:12:56.732Z,60.13
2022-11-16T20:16:01.311Z,59.99
2022-11-16T20:19:03.041Z,59.97
2022-11-16T20:22:04.596Z,59.65
2022-11-16T20:25:06.554Z,59.81
2022-11-16T20:28:09.519Z,60.10
2022-11-16T20:31:16.909Z,60.85
2022-11-16T20:34:20.310Z,61.47
2022-11-16T20:37:22.006Z,61.23
2022-11-16T20:40:24.466Z,60.37
2022-11-16T20:43:25.964Z,61.01
2022-11-16T20:46:29.841Z,61.22
2022-11-16T20:49:31.354Z,62.01
2022-11-16T20:52:33.648Z,61.37
2022-11-16T20:55:35.998Z,61.67
2022-11-16T20:58:38.294Z,61.53
2022-11-16T21:01:41.541Z,61.39
2022-11-16T21:04:43.191Z,60.46
2022-11-16T21:07:44.804Z,60.59
2022-11-16T21:10:48.226Z,60.52
2022-11-16T21:14:08.483Z,60.48
2022-11-16T21:17:09.941Z,60.51
2022-11-16T21:20:27.074Z,60.54
2022-11-16T21:23:32.026Z,60.78
2022-11-16T21:26:34.559Z,60.89
2022-11-16T21:29:36.076Z,60.65
2022-11-16T21:32:37.679Z,60.92
2022-11-16T21:35:39.178Z,60.86
2022-11-16T21:38:41.315Z,61.50
2022-11-16T21:41:42.799Z,60.78
2022-11-16T21:44:44.437Z,61.07
2022-11-16T21:47:45.925Z,60.55
2022-11-16T21:50:47.462Z,61.24
2022-11-16T21:53:48.980Z,61.26
2022-11-16T21:56:50.541Z,61.37
2022-11-16T21:59:52.144Z,61.00
2022-11-16T22:02:53.941Z,60.37
2022-11-16T22:06:16.779Z,60.60
2022-11-16T22:09:18.314Z,60.27
2022-11-16T22:12:19.764Z,60.52
2022-11-16T22:15:21.354Z,60.04
2022-11-16T22:18:22.814Z,59.60
2022-11-16T22:21:24.454Z,59.72
2022-11-16T22:24:26.032Z,59.77
2022-11-16T22:27:27.743Z,60.14
2022-11-16T22:30:29.264Z,60.89
2022-11-16T22:33:31.951Z,59.84
2022-11-16T22:36:33.606Z,59.87
2022-11-16T22:39:36.533Z,60.15
2022-11-16T22:42:38.503Z,60.02
2022-11-16T22:45:40.021Z,60.01
2022-11-16T22:48:41.950Z,59.85
2022-11-16T22:51:43.508Z,60.31
2022-11-16T22:54:45.108Z,59.66
2022-11-16T22:57:46.648Z,57.95
2022-11-16T23:00:48.138Z,57.17
2022-11-16T23:03:50.462Z,57.42
2022-11-16T23:06:52.023Z,57.57
2022-11-16T23:09:53.535Z,58.51
2022-11-16T23:13:13.695Z,59.07
2022-11-16T23:16:15.176Z,58.83
2022-11-16T23:19:37.155Z,59.53
2022-11-16T23:22:56.945Z,59.57
2022-11-16T23:26:16.719Z,59.52
2022-11-16T23:29:18.112Z,59.87
2022-11-16T23:32:19.631Z,61.31
2022-11-16T23:35:22.142Z,60.98
2022-11-16T23:38:23.530Z,60.69
2022-11-16T23:41:43.718Z,60.59
2022-11-16T23:44:45.225Z,59.33
2022-11-16T23:47:46.602Z,60.66
2022-11-16T23:50:48.019Z,59.83
2022-11-16T23:53:51.455Z,60.13
2022-11-16T23:56:52.856Z,60.05
2022-11-16T23:59:54.397Z,59.83
